Time;durP1;ratioP1;P1;durP2;ratioP2;P2;SDS_P1;SDS_P2;PMS_P1;PMS_P2;Temp;Humidity;BMP_temperature;BMP_pressure;BME280_temperature;BME280_humidity;BME280_pressure;Samples;Min_cycle;Max_cycle;Signal;HPM_P1;HPM_P2
2022/12/20 08:11:50;;;;;;;12.55;8.95;;;;;;;-2.65;62.85;100488.30;1835580;77;26224;-68
2022/12/20 08:14:16;;;;;;;8.80;7.92;;;;;;;-2.36;61.96;100505.75;1816072;78;20971;-67
2022/12/20 08:16:43;;;;;;;24.25;10.08;;;;;;;-2.15;59.75;100498.92;1820039;78;21204;-68
2022/12/20 08:19:10;;;;;;;17.57;9.45;;;;;;;-1.99;59.55;100492.50;1820234;78;21442;-69
2022/12/20 08:21:36;;;;;;;17.17;9.30;;;;;;;-1.85;58.59;100493.80;1820186;78;20999;-68
2022/12/20 08:24:04;;;;;;;16.65;9.65;;;;;;;-1.78;57.58;100488.77;1820379;78;20873;-69
2022/12/20 08:26:33;;;;;;;18.53;11.60;;;;;;;-1.76;57.41;100473.16;1820537;78;21493;-69
2022/12/20 08:29:00;;;;;;;21.30;11.90;;;;;;;-1.63;58.25;100466.19;1793373;78;21264;-67
2022/12/20 08:31:26;;;;;;;23.20;11.63;;;;;;;-1.55;59.45;100475.45;1817761;78;20999;-68
2022/12/20 08:33:54;;;;;;;17.37;12.65;;;;;;;-1.59;58.07;100479.39;1820015;78;20853;-69
2022/12/20 08:36:20;;;;;;;20.77;10.43;;;;;;;-1.48;58.71;100480.95;1820115;78;20877;-69
2022/12/20 08:38:47;;;;;;;21.02;12.75;;;;;;;-1.52;57.45;100471.69;1820118;78;21053;-69
2022/12/20 10:01:24;;;;;;;13.48;8.35;;;;;;;-1.66;63.22;100341.95;1834864;77;26222;-64
2022/12/20 10:03:51;;;;;;;20.80;12.23;;;;;;;-1.34;59.68;100330.28;1815650;78;20913;-66
2022/12/20 10:07:04;;;;;;;13.15;9.55;;;;;;;-1.11;61.20;100332.34;1820084;78;21258;-65
2022/12/20 10:09:49;;;;;;;18.87;12.43;;;;;;;-1.02;60.42;100331.39;1820253;78;20976;-68
2022/12/20 10:12:33;;;;;;;27.25;15.70;;;;;;;-1.00;59.38;100327.30;1820375;78;20849;-67
2022/12/20 10:15:27;;;;;;;23.38;10.85;;;;;;;-0.92;59.38;100293.05;1820038;78;21577;-68
2022/12/20 10:18:14;;;;;;;28.23;13.15;;;;;;;-0.86;59.04;100317.42;1820139;78;20873;-67
2022/12/20 10:20:55;;;;;;;18.93;13.27;;;;;;;-0.78;58.19;100304.79;1820145;78;21219;-68
2022/12/20 10:23:29;;;;;;;18.27;11.43;;;;;;;-0.68;59.15;100298.37;1820001;78;20905;-68
2022/12/20 10:25:56;;;;;;;16.57;9.53;;;;;;;-0.63;58.80;100292.61;1820047;78;21439;-66
2022/12/20 10:28:30;;;;;;;31.25;16.30;;;;;;;-0.73;57.46;100285.36;1820169;78;20918;-68
2022/12/20 10:31:00;;;;;;;17.50;9.90;;;;;;;-0.71;58.39;100276.77;1820237;78;21424;-68
2022/12/20 10:33:27;;;;;;;20.25;12.95;;;;;;;-0.58;59.31;100277.13;1818958;78;21253;-68
2022/12/20 10:35:54;;;;;;;31.33;14.63;;;;;;;-0.57;59.48;100276.62;1820034;78;20865;-69
2022/12/20 10:38:21;;;;;;;19.20;12.13;;;;;;;-0.49;61.00;100274.83;1820201;78;21502;-69
2022/12/20 10:41:00;;;;;;;15.30;8.95;;;;;;;-0.54;61.17;100266.59;1820002;78;21880;-67
2022/12/20 10:43:27;;;;;;;16.55;10.03;;;;;;;-0.58;60.06;100257.84;1820077;78;21378;-68
2022/12/20 10:46:03;;;;;;;13.10;9.30;;;;;;;-0.64;60.62;100243.48;1820093;78;21185;-69
2022/12/20 10:48:37;;;;;;;19.48;12.30;;;;;;;-0.59;59.57;100264.09;1819970;78;20920;-69
2022/12/20 10:51:13;;;;;;;14.10;8.43;;;;;;;-0.59;59.26;100242.50;1820024;78;21407;-68
2022/12/20 10:54:00;;;;;;;14.70;8.98;;;;;;;-0.56;61.58;100249.28;1820065;78;21003;-68
2022/12/20 10:56:30;;;;;;;10.48;8.03;;;;;;;-0.62;59.73;100238.06;1820391;78;20908;-69
2022/12/20 10:59:04;;;;;;;17.32;10.55;;;;;;;-0.48;61.18;100231.63;1819994;78;21233;-69
2022/12/20 11:01:35;;;;;;;11.90;8.33;;;;;;;-0.55;61.31;100218.77;1803969;78;20868;-67
2022/12/20 11:04:08;;;;;;;17.55;9.58;;;;;;;-0.45;61.81;100214.16;1786831;78;20972;-67
2022/12/20 11:06:42;;;;;;;17.10;10.40;;;;;;;-0.49;61.53;100222.56;1800739;78;20877;-68
2022/12/20 11:09:34;;;;;;;13.05;8.80;;;;;;;-0.48;61.01;100207.90;1820230;78;20913;-69
2022/12/20 11:12:14;;;;;;;12.40;9.48;;;;;;;-0.37;60.72;100212.00;1819659;78;21482;-69
2022/12/20 11:14:44;;;;;;;8.00;6.80;;;;;;;-0.36;60.82;100213.66;1819394;79;20920;-69
2022/12/20 11:17:34;;;;;;;18.23;12.28;;;;;;;-0.41;61.70;100191.42;1819923;78;20999;-69
2022/12/20 11:20:42;;;;;;;32.38;10.13;;;;;;;-0.39;62.76;100191.58;1819382;79;21518;-69
2022/12/20 11:23:40;;;;;;;18.32;11.28;;;;;;;-0.48;61.53;100182.84;1819686;79;21469;-69
2022/12/20 11:26:48;;;;;;;12.88;8.50;;;;;;;-0.45;61.33;100179.05;1819657;79;21984;-67
2022/12/20 11:29:26;;;;;;;17.80;10.00;;;;;;;-0.47;61.14;100163.88;1819574;79;20841;-70
2022/12/20 11:32:15;;;;;;;17.10;11.20;;;;;;;-0.49;60.73;100162.75;1819317;79;20964;-70
2022/12/20 11:35:12;;;;;;;24.90;12.73;;;;;;;-0.42;63.15;100162.88;1819494;79;20873;-71
2022/12/20 11:37:53;;;;;;;14.13;8.70;;;;;;;-0.45;61.55;100146.90;1819564;79;20845;-69
2022/12/20 11:40:56;;;;;;;15.83;10.40;;;;;;;-0.38;64.98;100171.30;1819319;79;21162;-69
2022/12/20 11:43:38;;;;;;;24.98;12.50;;;;;;;-0.34;63.11;100166.84;1819420;79;20960;-68
2022/12/20 11:46:28;;;;;;;24.32;13.68;;;;;;;-0.32;63.90;100162.23;1819209;78;20963;-69
2022/12/20 11:49:22;;;;;;;55.20;25.75;;;;;;;-0.35;64.88;100163.86;1817912;78;20908;-68
2022/12/20 11:52:05;;;;;;;74.75;32.13;;;;;;;-0.38;63.43;100160.75;1819441;79;20829;-67
2022/12/20 11:54:45;;;;;;;25.12;14.60;;;;;;;-0.33;64.04;100159.75;1819400;79;21146;-68
2022/12/20 11:57:25;;;;;;;31.27;20.17;;;;;;;-0.27;63.74;100159.91;1819609;78;20956;-68
2022/12/20 11:59:56;;;;;;;16.48;9.78;;;;;;;-0.20;65.50;100149.98;1819496;79;20873;-69
2022/12/20 12:02:49;;;;;;;71.10;38.17;;;;;;;-0.20;64.13;100149.98;1819366;79;20889;-68
2022/12/20 15:05:59;;;;;;;29.98;15.63;;;;;;;-2.14;100.00;100044.21;1825724;77;26145;-67
2022/12/20 15:08:33;;;;;;;56.02;26.55;;;;;;;-1.97;100.00;100048.53;1768960;80;21065;-68
2022/12/20 15:11:11;;;;;;;46.73;21.77;;;;;;;-1.79;100.00;100034.42;1822104;78;21250;-68
2022/12/20 15:13:48;;;;;;;43.63;22.58;;;;;;;-1.71;100.00;100043.67;1805878;78;21091;-68
2022/12/20 15:16:24;;;;;;;27.98;15.13;;;;;;;-1.70;100.00;100040.04;1813849;78;20940;-69
2022/12/20 15:18:57;;;;;;;31.00;21.00;;;;;;;-1.68;100.00;100043.34;1820150;78;20845;-68
2022/12/20 15:21:52;;;;;;;66.05;35.38;;;;;;;-1.52;100.00;100038.58;1820303;78;21376;-69
2022/12/20 15:24:22;;;;;;;48.58;22.55;;;;;;;-1.42;100.00;100038.41;1789154;79;21204;-68
2022/12/20 15:26:49;;;;;;;51.70;30.23;;;;;;;-1.44;100.00;100024.12;1791678;79;20968;-68
2022/12/20 15:29:20;;;;;;;34.35;19.77;;;;;;;-1.37;100.00;100018.99;1791056;78;20849;-69
2022/12/20 15:31:47;;;;;;;39.05;22.40;;;;;;;-1.31;100.00;100013.08;1789087;79;20876;-70
2022/12/20 15:34:25;;;;;;;116.17;59.38;;;;;;;-1.25;100.00;100020.34;1769578;79;20936;-69
2022/12/20 15:36:52;;;;;;;38.20;20.63;;;;;;;-1.19;100.00;100011.75;1780404;79;21262;-69
2022/12/20 15:39:20;;;;;;;35.75;19.95;;;;;;;-1.24;100.00;100010.11;1778568;79;20878;-69
2022/12/20 15:41:48;;;;;;;45.50;25.55;;;;;;;-1.20;100.00;100010.13;1798537;79;21530;-70
2022/12/20 15:44:26;;;;;;;29.42;17.27;;;;;;;-1.10;100.00;100009.95;1770158;79;21052;-68
2022/12/20 15:46:52;;;;;;;65.40;26.80;;;;;;;-1.11;100.00;99992.48;1790299;79;20952;-68
2022/12/20 15:49:24;;;;;;;36.53;16.27;;;;;;;-0.95;100.00;99994.27;1783301;79;21418;-69
2022/12/20 15:51:52;;;;;;;29.70;14.78;;;;;;;-0.98;100.00;99994.12;1799247;79;20963;-69
2022/12/20 15:54:34;;;;;;;31.73;14.20;;;;;;;-0.96;100.00;99984.20;1779014;79;20940;-70
2022/12/20 15:57:09;;;;;;;26.50;16.45;;;;;;;-0.85;100.00;99995.41;1798693;79;20925;-69
2022/12/20 15:59:35;;;;;;;55.23;27.30;;;;;;;-0.82;100.00;99989.29;1778788;79;21133;-69
2022/12/20 16:02:04;;;;;;;52.75;30.95;;;;;;;-0.85;100.00;99987.00;1803651;79;21317;-70
2022/12/20 16:04:32;;;;;;;29.40;14.43;;;;;;;-0.76;100.00;99986.46;1805932;79;21450;-70
2022/12/20 16:06:58;;;;;;;29.48;17.62;;;;;;;-0.79;100.00;99984.17;1806185;79;20882;-70
2022/12/20 16:09:25;;;;;;;25.92;15.98;;;;;;;-0.76;100.00;99975.45;1805987;79;21045;-69
2022/12/20 16:11:52;;;;;;;28.47;15.60;;;;;;;-0.76;100.00;99975.45;1806160;79;20987;-70
2022/12/20 16:14:20;;;;;;;29.95;17.57;;;;;;;-0.74;100.00;99968.66;1806104;79;21325;-69
2022/12/20 16:16:48;;;;;;;177.77;80.63;;;;;;;-0.63;100.00;99982.00;1805711;79;20904;-68
2022/12/20 16:19:16;;;;;;;40.38;24.23;;;;;;;-0.63;100.00;99982.00;1805437;79;21232;-69
2022/12/20 16:21:48;;;;;;;31.85;20.30;;;;;;;-0.60;100.00;99973.73;1805358;79;20971;-67
2022/12/20 16:24:19;;;;;;;22.80;11.70;;;;;;;-0.60;100.00;99970.59;1776959;79;20893;-69
2022/12/20 16:26:47;;;;;;;29.72;16.32;;;;;;;-0.69;100.00;99966.34;1805466;79;21292;-69
2022/12/20 16:29:15;;;;;;;22.73;15.43;;;;;;;-0.56;100.00;99981.14;1805753;79;20980;-69
2022/12/20 16:31:42;;;;;;;30.70;19.27;;;;;;;-0.50;100.00;99978.30;1805670;79;21522;-68
2022/12/20 16:34:17;;;;;;;27.02;15.80;;;;;;;-0.44;100.00;99971.04;1805588;79;20877;-68
2022/12/20 16:36:43;;;;;;;20.62;14.18;;;;;;;-0.50;100.00;99970.39;1805520;79;21560;-69
2022/12/20 16:39:10;;;;;;;25.97;13.93;;;;;;;-0.48;100.00;99967.09;1805474;79;21146;-68
2022/12/20 16:41:39;;;;;;;33.38;15.00;;;;;;;-0.53;100.00;99962.83;1805345;79;20861;-68
2022/12/20 16:44:10;;;;;;;42.48;19.15;;;;;;;-0.53;100.00;99964.16;1805752;79;21023;-69
2022/12/20 16:46:36;;;;;;;42.85;18.92;;;;;;;-0.43;100.00;99964.76;1805320;79;21466;-69
2022/12/20 16:49:03;;;;;;;78.90;36.40;;;;;;;-0.51;100.00;99974.85;1805354;79;20948;-69
2022/12/20 16:51:39;;;;;;;34.58;17.82;;;;;;;-0.54;100.00;99969.08;1805487;79;21253;-67
2022/12/20 16:54:12;;;;;;;38.83;20.60;;;;;;;-0.56;100.00;99972.41;1805585;79;20913;-69
2022/12/20 16:56:40;;;;;;;40.45;18.45;;;;;;;-0.53;100.00;99970.74;1805390;79;20908;-67
2022/12/20 16:59:08;;;;;;;39.30;23.00;;;;;;;-0.34;100.00;99962.88;1805596;79;20999;-69
2022/12/20 17:01:37;;;;;;;39.83;21.73;;;;;;;-0.35;100.00;99971.80;1805661;79;21460;-69
2022/12/20 17:04:05;;;;;;;29.18;18.15;;;;;;;-0.23;100.00;99972.55;1805631;79;21179;-69
2022/12/20 17:06:32;;;;;;;36.88;21.25;;;;;;;-0.25;100.00;99969.27;1805527;79;20968;-70
2022/12/20 17:09:00;;;;;;;74.03;34.27;;;;;;;-0.23;100.00;99965.14;1805618;79;20909;-69
2022/12/20 17:11:30;;;;;;;49.25;21.45;;;;;;;-0.27;100.00;99974.39;1805566;79;20892;-68
2022/12/20 17:13:57;;;;;;;38.88;20.68;;;;;;;-0.45;100.00;99953.05;1805783;79;20901;-69
2022/12/20 17:16:24;;;;;;;40.78;20.52;;;;;;;-0.36;100.00;99945.12;1805427;79;21221;-69
2022/12/20 17:18:53;;;;;;;34.73;18.55;;;;;;;-0.31;100.00;99943.59;1805501;79;21621;-69
2022/12/20 17:21:38;;;;;;;;;;;;;;;-0.28;100.00;99935.33;1808067;79;20920;-69
2022/12/20 17:24:10;;;;;;;32.08;18.98;;;;;;;-0.28;100.00;99942.42;1805509;79;20413;-69
2022/12/20 17:26:37;;;;;;;34.10;19.57;;;;;;;-0.19;100.00;99936.61;1804967;79;20873;-67
2022/12/20 17:29:04;;;;;;;24.52;16.82;;;;;;;-0.17;100.00;99936.77;1805312;79;21203;-66
2022/12/20 17:31:39;;;;;;;33.28;17.92;;;;;;;-0.18;100.00;99923.73;1805400;79;20976;-70
2022/12/20 17:34:13;;;;;;;24.18;14.73;;;;;;;-0.20;100.00;99921.26;1805559;79;21429;-67
2022/12/20 17:36:39;;;;;;;25.00;16.00;;;;;;;-0.20;100.00;99911.20;1805573;79;21049;-69
2022/12/20 17:39:06;;;;;;;35.75;16.82;;;;;;;-0.20;100.00;99912.02;1805405;79;20877;-69
2022/12/20 17:41:33;;;;;;;28.35;16.90;;;;;;;-0.15;100.00;99907.04;1805495;79;21269;-67
2022/12/20 17:44:01;;;;;;;36.98;20.62;;;;;;;-0.06;100.00;99926.29;1805234;79;20921;-69
2022/12/20 17:46:28;;;;;;;37.70;21.50;;;;;;;-0.11;100.00;99921.53;1805477;79;20885;-70
2022/12/20 17:48:57;;;;;;;39.63;20.70;;;;;;;-0.09;100.00;99921.38;1805524;79;20905;-70
2022/12/20 17:51:26;;;;;;;47.23;25.85;;;;;;;-0.04;100.00;99911.92;1805579;79;20916;-69
2022/12/20 17:53:56;;;;;;;56.98;29.07;;;;;;;0.03;100.00;99916.52;1805465;79;21308;-69
2022/12/20 17:56:25;;;;;;;45.48;28.15;;;;;;;-0.06;100.00;99917.05;1805659;79;20932;-68
2022/12/20 17:58:53;;;;;;;36.83;18.37;;;;;;;-0.13;100.00;99918.25;1805368;79;21042;-69
2022/12/20 18:01:22;;;;;;;30.08;14.87;;;;;;;-0.13;100.00;99912.97;1805815;79;21407;-69
2022/12/20 18:03:52;;;;;;;39.88;21.90;;;;;;;-0.01;100.00;99905.47;1805336;79;21493;-69
2022/12/20 18:06:19;;;;;;;37.88;21.90;;;;;;;-0.08;100.00;99917.72;1805588;78;21810;-70
2022/12/20 18:08:51;;;;;;;22.82;15.30;;;;;;;-0.02;100.00;99921.81;1805468;79;20912;-69
2022/12/20 18:11:18;;;;;;;43.05;24.02;;;;;;;-0.15;100.00;99917.59;1804623;79;20912;-69
2022/12/20 18:13:47;;;;;;;35.73;17.57;;;;;;;0.00;100.00;99913.73;1805451;79;20905;-70
2022/12/20 18:16:18;;;;;;;34.83;18.98;;;;;;;0.01;100.00;99916.67;1805820;79;24508;-69
2022/12/20 18:18:46;;;;;;;33.70;16.87;;;;;;;0.00;100.00;99905.81;1805317;79;21241;-69
2022/12/20 18:21:15;;;;;;;38.97;24.63;;;;;;;-0.02;100.00;99904.66;1805932;79;20976;-69
2022/12/20 18:23:43;;;;;;;32.48;19.67;;;;;;;0.09;100.00;99913.16;1805578;79;20896;-70
2022/12/20 18:26:21;;;;;;;29.60;14.28;;;;;;;0.11;100.00;99909.34;1805266;79;20924;-68
2022/12/20 18:28:49;;;;;;;;;;;;;;;0.01;100.00;99906.12;1808025;79;20877;-68
2022/12/20 18:31:19;;;;;;;32.40;16.52;;;;;;;0.03;100.00;99908.09;1805596;79;21234;-69
2022/12/20 18:33:46;;;;;;;32.85;20.48;;;;;;;0.07;100.00;99894.84;1805508;79;20913;-68
2022/12/20 18:36:16;;;;;;;37.45;20.32;;;;;;;0.03;100.00;99900.17;1776983;79;20944;-69
2022/12/20 18:38:44;;;;;;;46.02;27.25;;;;;;;-0.06;100.00;99897.27;1805543;79;20944;-69
2022/12/20 18:41:15;;;;;;;90.12;42.15;;;;;;;0.06;100.00;99890.57;1805437;79;20928;-69
2022/12/20 18:43:41;;;;;;;46.77;26.60;;;;;;;0.02;100.00;99889.78;1805620;79;21130;-69
2022/12/20 18:46:16;;;;;;;42.17;23.02;;;;;;;0.01;100.00;99886.33;1805339;79;21442;-70
2022/12/20 18:48:44;;;;;;;35.98;22.00;;;;;;;0.11;100.00;99884.77;1805704;79;20917;-69
2022/12/20 18:51:17;;;;;;;39.30;20.02;;;;;;;0.09;100.00;99886.25;1805355;79;20942;-70
2022/12/20 18:53:46;;;;;;;34.75;19.02;;;;;;;0.16;100.00;99883.23;1805708;79;20921;-68
2022/12/20 18:56:29;;;;;;;38.98;19.52;;;;;;;0.06;100.00;99877.88;1805400;79;21242;-69
2022/12/20 18:58:58;;;;;;;29.12;18.27;;;;;;;0.09;100.00;99883.61;1805603;79;20869;-68
2022/12/20 19:01:32;;;;;;;40.52;21.77;;;;;;;0.09;100.00;99880.16;1776974;79;20924;-67
2022/12/20 19:04:01;;;;;;;35.20;20.02;;;;;;;0.12;100.00;99886.39;1805550;79;21435;-69
2022/12/20 19:06:28;;;;;;;36.20;20.68;;;;;;;0.05;100.00;99881.50;1805437;79;20866;-69
2022/12/20 19:08:54;;;;;;;25.35;14.47;;;;;;;0.05;100.00;99878.39;1805338;79;21142;-69
2022/12/20 19:11:22;;;;;;;32.75;17.45;;;;;;;-93.79;100.00;99869.17;1805264;79;21217;-71
2022/12/20 19:13:50;;;;;;;36.95;19.23;;;;;;;0.01;100.00;99869.17;1805585;79;21391;-69
2022/12/20 19:16:20;;;;;;;36.67;19.50;;;;;;;-0.01;100.00;99877.76;1805517;79;20877;-70
2022/12/20 19:18:47;;;;;;;28.00;14.07;;;;;;;-0.01;100.00;99877.76;1805691;79;20916;-67
2022/12/20 19:21:20;;;;;;;44.95;21.65;;;;;;;-0.01;100.00;99877.76;1805383;79;22178;-68
2022/12/20 19:23:49;;;;;;;41.53;22.20;;;;;;;-0.01;100.00;99877.76;1805608;79;20857;-68
2022/12/20 19:26:16;;;;;;;;;;;;;;;-0.01;100.00;99877.76;1807953;79;20963;-69
2022/12/20 19:28:42;;;;;;;38.25;19.55;;;;;;;86.70;0.00;78322.05;1805103;79;20103;-69
2022/12/20 19:31:15;;;;;;;29.48;15.83;;;;;;;86.70;0.00;78322.05;1805237;79;21419;-69
2022/12/20 19:33:45;;;;;;;35.40;18.55;;;;;;;-0.01;100.00;99877.76;1805702;79;21782;-68
2022/12/20 19:36:17;;;;;;;31.95;15.85;;;;;;;0.13;100.00;99866.43;1805341;79;20929;-69
2022/12/20 19:38:52;;;;;;;19.57;12.37;;;;;;;0.11;100.00;99860.50;1804863;79;20960;-68
2022/12/20 19:41:20;;;;;;;23.27;12.93;;;;;;;0.11;100.00;99856.55;1805206;79;20858;-69
2022/12/20 19:43:48;;;;;;;29.65;15.25;;;;;;;0.11;100.00;99849.95;1805698;79;21466;-69
2022/12/20 19:46:15;;;;;;;35.55;16.00;;;;;;;0.12;100.00;99850.28;1805267;79;21132;-70
2022/12/20 19:48:43;;;;;;;29.75;15.18;;;;;;;0.17;100.00;99849.25;1805316;79;20913;-68
2022/12/20 19:51:12;;;;;;;32.93;16.85;;;;;;;87.61;100.00;99849.25;1805416;79;20917;-69
2022/12/20 19:53:41;;;;;;;31.95;17.17;;;;;;;87.61;0.00;78276.92;1805425;79;20900;-69
2022/12/20 19:56:10;;;;;;;;;;;;;;;87.61;0.00;78276.92;1808278;79;21450;-67
2022/12/20 19:58:37;;;;;;;31.97;16.62;;;;;;;0.17;100.00;99849.25;1805577;79;21241;-69
2022/12/20 20:01:05;;;;;;;35.20;20.02;;;;;;;87.61;0.00;78276.92;1805528;79;21486;-69
2022/12/20 20:03:35;;;;;;;34.83;18.07;;;;;;;87.61;0.00;78276.92;1805839;79;20909;-68
2022/12/20 20:06:04;;;;;;;30.00;18.57;;;;;;;87.61;0.00;78276.92;1805225;79;20975;-68
2022/12/20 20:08:33;;;;;;;29.77;14.35;;;;;;;87.61;0.00;78276.92;1805965;79;21458;-68
2022/12/20 20:11:00;;;;;;;24.32;14.98;;;;;;;0.17;100.00;99849.25;1805689;79;21073;-68
2022/12/20 20:13:27;;;;;;;35.40;16.40;;;;;;;87.61;0.00;121243.64;1805595;79;20877;-67
2022/12/20 20:15:57;;;;;;;27.17;16.75;;;;;;;0.17;100.00;99849.25;1805612;79;20924;-69
2022/12/20 20:18:24;;;;;;;19.42;13.53;;;;;;;0.17;100.00;99849.25;1805584;79;20983;-69
2022/12/20 20:20:53;;;;;;;33.38;13.35;;;;;;;0.17;100.00;99849.25;1805574;79;20964;-70
2022/12/20 20:23:26;;;;;;;37.10;20.23;;;;;;;87.61;0.00;78276.92;1805817;79;21764;-68
2022/12/20 20:25:55;;;;;;;18.50;11.65;;;;;;;87.61;0.00;78276.92;1805148;79;20963;-69
2022/12/20 20:28:23;;;;;;;21.52;12.23;;;;;;;-93.79;100.00;99849.25;1805218;79;20984;-69
2022/12/20 20:30:50;;;;;;;29.52;16.07;;;;;;;0.17;100.00;99849.25;1805278;79;20921;-69
2022/12/20 20:33:57;;;;;;;31.17;14.80;;;;;;;87.61;0.00;121243.64;1805229;79;20965;-67
2022/12/20 20:36:31;;;;;;;28.42;16.23;;;;;;;-146.14;100.00;121243.23;1805091;79;21309;-69
2022/12/20 20:43:28;;;;;;;86.42;38.73;;;;;;;-146.14;100.00;121243.23;1805303;79;21382;-67
2022/12/20 20:46:29;;;;;;;29.50;17.15;;;;;;;-146.14;100.00;121243.23;1805157;79;20952;-70
2022/12/20 20:48:57;;;;;;;36.73;17.90;;;;;;;0.17;100.00;99849.25;1805079;79;20984;-67
2022/12/20 20:51:23;;;;;;;35.85;19.52;;;;;;;0.46;100.00;99815.12;1805055;79;20920;-69
2022/12/20 20:53:50;;;;;;;31.57;16.32;;;;;;;0.44;100.00;99823.22;1805265;79;21285;-69
2022/12/20 20:56:17;;;;;;;33.80;18.80;;;;;;;-145.24;0.00;78227.70;1804954;79;21517;-68
2022/12/20 20:58:45;;;;;;;27.10;15.43;;;;;;;-145.24;0.00;78227.70;1805191;79;20909;-69
2022/12/20 21:01:30;;;;;;;32.20;18.92;;;;;;;-145.24;0.00;121243.64;1804987;79;20914;-67
2022/12/20 21:03:59;;;;;;;44.30;28.80;;;;;;;-146.13;0.00;132202.75;1805286;79;20901;-70
2022/12/20 21:06:31;;;;;;;31.20;18.98;;;;;;;-146.14;100.00;121243.23;1805325;79;21313;-69
2022/12/20 21:09:03;;;;;;;39.53;23.47;;;;;;;-140.70;0.00;127092.28;1805103;79;20960;-69
2022/12/20 21:11:38;;;;;;;52.20;26.30;;;;;;;-145.24;0.00;78227.70;1805252;79;21462;-68
2022/12/20 21:14:20;;;;;;;40.70;24.95;;;;;;;-145.24;0.00;121243.64;1805234;79;21469;-68
2022/12/20 21:16:54;;;;;;;86.90;53.78;;;;;;;-146.14;100.00;121243.23;1805226;79;21070;-68
2022/12/20 21:19:45;;;;;;;48.38;28.15;;;;;;;-146.14;100.00;121243.23;1805205;79;21152;-68
2022/12/20 21:23:00;;;;;;;32.42;18.35;;;;;;;-146.14;100.00;121243.23;1804944;79;21008;-69
2022/12/20 21:25:58;;;;;;;49.67;26.30;;;;;;;-146.14;100.00;121243.23;1776609;79;20961;-67
2022/12/20 21:29:39;;;;;;;50.85;24.15;;;;;;;-146.14;100.00;121243.23;1805193;79;20911;-66
2022/12/20 21:33:01;;;;;;;52.13;26.45;;;;;;;-146.14;100.00;121243.23;1805165;79;20928;-69
2022/12/20 21:35:43;;;;;;;47.23;23.00;;;;;;;-39.44;100.00;99828.50;1805128;79;21301;-72
2022/12/20 21:41:05;;;;;;;40.45;21.93;;;;;;;-146.14;100.00;121243.23;1805070;79;20940;-71
2022/12/20 21:44:11;;;;;;;37.15;20.65;;;;;;;-146.14;100.00;121243.23;1804023;79;20960;-71
2022/12/20 21:47:35;;;;;;;34.55;18.62;;;;;;;-110.15;0.00;78227.70;1805023;79;20908;-69
2022/12/20 21:50:16;;;;;;;37.45;19.42;;;;;;;-145.24;0.00;121243.64;1805289;79;21538;-69
2022/12/20 21:53:07;;;;;;;35.00;18.48;;;;;;;-146.14;100.00;121243.23;1805098;79;21154;-71
2022/12/20 21:56:08;;;;;;;25.70;15.20;;;;;;;-146.14;100.00;121243.23;1804955;79;20968;-69
2022/12/20 21:58:37;;;;;;;34.05;18.07;;;;;;;-146.14;100.00;121243.23;1676945;84;20900;-67
2022/12/20 22:01:15;;;;;;;29.30;14.63;;;;;;;-146.14;100.00;121243.23;1675427;85;20940;-68
2022/12/20 22:04:28;;;;;;;29.35;17.52;;;;;;;-146.14;100.00;121243.23;1675662;85;20920;-69
2022/12/20 22:06:54;;;;;;;31.60;17.50;;;;;;;0.44;100.00;99828.50;1675642;85;21554;-69
2022/12/20 22:09:21;;;;;;;26.62;16.65;;;;;;;0.77;100.00;99832.94;1675509;85;21112;-66
2022/12/20 22:11:49;;;;;;;30.82;19.73;;;;;;;0.75;100.00;99833.61;1675613;84;20968;-68
2022/12/20 22:14:16;;;;;;;32.13;18.90;;;;;;;0.87;100.00;99837.94;1675665;85;21014;-68
2022/12/20 22:16:43;;;;;;;29.02;16.05;;;;;;;0.77;100.00;99834.77;1675661;85;20928;-68
2022/12/20 22:19:12;;;;;;;28.57;16.75;;;;;;;0.79;100.00;99834.09;1675416;85;21135;-68
2022/12/20 22:21:39;;;;;;;22.07;13.43;;;;;;;0.75;100.00;99831.48;1653018;85;21596;-68
2022/12/20 22:24:07;;;;;;;31.85;19.48;;;;;;;0.70;100.00;99835.17;1675586;85;20896;-69
2022/12/20 22:26:35;;;;;;;32.63;20.10;;;;;;;0.80;100.00;99833.88;1653109;85;21016;-69
2022/12/20 22:29:04;;;;;;;33.08;18.32;;;;;;;0.80;100.00;99836.52;1700409;81;21059;-69
2022/12/20 22:31:31;;;;;;;27.25;16.73;;;;;;;0.90;100.00;99835.43;1753288;81;21158;-69
2022/12/20 22:33:59;;;;;;;31.25;17.75;;;;;;;0.73;100.00;99828.20;1753146;81;20959;-69
2022/12/20 22:36:26;;;;;;;25.23;15.70;;;;;;;0.78;100.00;99821.34;1753412;81;21418;-69
2022/12/20 22:38:54;;;;;;;32.17;17.27;;;;;;;0.74;100.00;99819.28;1753014;81;20857;-69
2022/12/20 22:41:27;;;;;;;35.73;19.00;;;;;;;0.68;100.00;99804.96;1753417;81;20983;-69
2022/12/20 22:43:54;;;;;;;25.08;16.35;;;;;;;0.71;100.00;99795.37;1753054;81;21957;-69
2022/12/20 22:46:21;;;;;;;29.55;17.73;;;;;;;0.81;100.00;99788.48;1753283;81;20928;-69
2022/12/20 22:48:48;;;;;;;21.27;12.03;;;;;;;0.86;100.00;99776.85;1753128;81;20971;-69
2022/12/20 22:51:18;;;;;;;20.20;12.40;;;;;;;0.66;100.00;99780.55;1753221;81;20889;-69
2022/12/20 22:53:46;;;;;;;26.73;15.30;;;;;;;0.78;100.00;99771.66;1753302;81;20861;-70
2022/12/20 22:56:13;;;;;;;28.35;16.75;;;;;;;0.67;100.00;99758.93;1753200;81;21111;-69
2022/12/20 22:58:40;;;;;;;21.12;12.55;;;;;;;0.72;100.00;99745.98;1752959;81;20920;-68
2022/12/20 23:01:09;;;;;;;37.67;19.92;;;;;;;0.58;100.00;99749.77;1753099;81;21410;-68
2022/12/20 23:03:36;;;;;;;29.15;13.25;;;;;;;0.60;100.00;99743.80;1753253;81;20925;-69
2022/12/20 23:06:06;;;;;;;34.50;15.38;;;;;;;0.69;100.00;99735.28;1753154;81;20842;-69
2022/12/20 23:08:35;;;;;;;35.05;18.55;;;;;;;0.66;100.00;99732.98;1753451;81;21115;-69
2022/12/20 23:16:33;;;;;;;36.38;19.90;;;;;;;0.83;100.00;99758.22;1753199;82;20916;-69
2022/12/20 23:19:00;;;;;;;34.05;18.67;;;;;;;0.81;100.00;99762.05;1753198;81;21491;-70
2022/12/20 23:24:14;;;;;;;32.15;18.57;;;;;;;0.84;100.00;99765.64;1752939;81;21412;-68
2022/12/20 23:26:40;;;;;;;34.75;18.65;;;;;;;0.75;100.00;99759.63;1753092;81;20971;-69
2022/12/20 23:29:08;;;;;;;30.82;16.50;;;;;;;0.82;100.00;99767.14;1753354;81;21415;-69
2022/12/20 23:31:35;;;;;;;33.78;19.23;;;;;;;0.74;100.00;99771.22;1753203;81;20924;-69
2022/12/20 23:34:02;;;;;;;25.92;15.65;;;;;;;0.74;100.00;99761.16;1753453;81;21435;-70
2022/12/20 23:36:29;;;;;;;26.62;16.80;;;;;;;0.76;100.00;99761.77;1753092;81;20932;-68
2022/12/20 23:38:55;;;;;;;27.95;16.57;;;;;;;0.71;100.00;99766.78;1753147;81;20909;-70
2022/12/20 23:41:23;;;;;;;25.23;16.75;;;;;;;0.73;100.00;99770.06;1753093;81;20912;-70
2022/12/20 23:43:50;;;;;;;31.00;16.77;;;;;;;0.74;100.00;99766.44;1753396;81;20885;-69
2022/12/20 23:46:18;;;;;;;28.92;17.05;;;;;;;0.74;0.00;78142.61;1753114;81;21236;-68
2022/12/20 23:50:07;;;;;;;25.65;16.48;;;;;;;-89.86;0.00;78142.61;1753404;81;20904;-69
2022/12/20 23:52:48;;;;;;;27.65;15.60;;;;;;;-146.14;100.00;121243.23;1753658;81;20930;-68
2022/12/20 23:58:06;;;;;;;29.18;14.35;;;;;;;89.01;0.00;121243.64;1753225;81;20920;-68
